createdAt,value
2022-08-06T00:02:35.895Z,19.27
2022-08-06T00:06:00.796Z,19.92
2022-08-06T00:09:24.744Z,18.33
2022-08-06T00:12:49.929Z,17.30
2022-08-06T00:16:36.249Z,16.80
2022-08-06T00:19:58.320Z,16.67
2022-08-06T00:23:25.018Z,15.98
2022-08-06T00:26:51.549Z,74.30
2022-08-06T00:30:30.718Z,17.23
2022-08-06T00:33:59.802Z,16.95
2022-08-06T00:37:28.965Z,16.67
2022-08-06T00:41:10.744Z,17.00
2022-08-06T00:44:37.791Z,19.73
2022-08-06T00:48:06.796Z,20.15
2022-08-06T00:51:50.864Z,17.42
2022-08-06T00:58:42.780Z,18.13
2022-08-06T01:02:10.159Z,18.08
2022-08-06T01:06:52.729Z,26.58
2022-08-06T01:09:19.750Z,38.45
2022-08-06T01:12:43.810Z,15.32
2022-08-06T01:16:39.027Z,14.80
2022-08-06T01:21:58.798Z,16.23
2022-08-06T01:23:58.748Z,16.95
2022-08-06T01:27:46.812Z,20.73
2022-08-06T01:31:20.784Z,19.65
2022-08-06T01:35:05.784Z,16.67
2022-08-06T01:38:36.771Z,14.88
2022-08-06T01:42:09.819Z,14.95
2022-08-06T01:45:54.842Z,14.68
2022-08-06T01:49:26.503Z,16.67
2022-08-06T01:53:00.296Z,18.70
2022-08-06T01:56:31.191Z,17.42
2022-08-06T02:00:10.780Z,20.73
2022-08-06T02:03:53.162Z,17.77
2022-08-06T02:08:37.567Z,16.70
2022-08-06T02:12:01.368Z,13.50
2022-08-06T02:14:58.783Z,14.18
2022-08-06T02:18:34.146Z,14.57
2022-08-06T02:22:01.809Z,15.13
2022-08-06T02:25:34.408Z,12.95
2022-08-06T02:28:58.910Z,12.85
2022-08-06T02:32:25.820Z,12.52
2022-08-06T02:36:26.371Z,13.00
2022-08-06T02:40:01.528Z,15.18
2022-08-06T02:43:33.311Z,13.35
2022-08-06T02:47:04.755Z,13.20
2022-08-06T02:54:25.075Z,12.38
2022-08-06T02:57:58.202Z,11.80
2022-08-06T03:01:43.131Z,13.23
2022-08-06T03:05:10.843Z,12.07
2022-08-06T03:08:38.784Z,14.25
2022-08-06T03:12:02.849Z,14.35
2022-08-06T03:15:39.227Z,12.90
2022-08-06T03:19:55.005Z,16.10
2022-08-06T03:22:55.775Z,16.75
2022-08-06T03:26:20.869Z,16.17
2022-08-06T03:29:46.236Z,15.35
2022-08-06T03:33:29.926Z,14.93
2022-08-06T03:36:56.825Z,16.40
2022-08-06T03:40:21.846Z,15.77
2022-08-06T03:44:03.150Z,16.05
2022-08-06T03:47:49.203Z,17.05
2022-08-06T03:51:51.929Z,19.77
2022-08-06T03:55:22.675Z,19.60
2022-08-06T03:58:48.815Z,18.98
2022-08-06T04:02:24.768Z,15.35
2022-08-06T04:05:57.947Z,14.88
2022-08-06T04:09:33.890Z,13.65
2022-08-06T04:14:01.477Z,14.45
2022-08-06T04:16:52.848Z,13.18
2022-08-06T04:20:41.044Z,14.05
2022-08-06T04:23:57.823Z,13.10
2022-08-06T04:27:23.858Z,14.32
2022-08-06T04:30:54.816Z,12.25
2022-08-06T04:34:18.814Z,13.38
2022-08-06T04:37:44.839Z,13.65
2022-08-06T04:41:16.430Z,13.25
2022-08-06T04:44:44.365Z,13.77
2022-08-06T04:48:09.853Z,15.00
2022-08-06T04:52:45.597Z,15.73
2022-08-06T04:55:34.744Z,17.58
2022-08-06T04:59:00.921Z,17.48
2022-08-06T05:02:26.016Z,25.85
2022-08-06T05:06:31.852Z,18.27
2022-08-06T05:09:58.571Z,15.15
2022-08-06T05:13:35.539Z,13.93
2022-08-06T05:17:08.357Z,15.05
2022-08-06T05:20:34.923Z,17.80
2022-08-06T05:24:06.860Z,17.50
2022-08-06T05:27:54.792Z,15.90
2022-08-06T05:31:15.104Z,16.70
2022-08-06T05:34:38.825Z,13.90
2022-08-06T05:38:21.101Z,15.32
2022-08-06T05:41:59.882Z,16.00
2022-08-06T05:45:28.841Z,13.35
2022-08-06T05:49:31.409Z,16.05
2022-08-06T05:53:04.843Z,14.88
2022-08-06T05:56:38.723Z,15.18
2022-08-06T06:00:02.468Z,14.23
2022-08-06T06:03:33.508Z,14.55
2022-08-06T06:06:59.881Z,14.80
2022-08-06T06:10:28.963Z,16.35
2022-08-06T06:13:59.985Z,17.52
2022-08-06T06:18:01.957Z,18.17
2022-08-06T06:21:53.891Z,18.13
2022-08-06T06:25:41.916Z,16.15
2022-08-06T06:29:33.858Z,15.68
2022-08-06T06:33:16.878Z,15.80
2022-08-06T06:37:12.912Z,15.65
2022-08-06T06:41:19.881Z,16.85
2022-08-06T06:45:04.316Z,15.95
2022-08-06T06:48:56.919Z,17.10
2022-08-06T06:52:56.889Z,19.67
2022-08-06T06:56:22.059Z,20.63
2022-08-06T07:00:01.358Z,17.15
2022-08-06T07:07:15.101Z,15.88
2022-08-06T07:10:48.068Z,14.77
2022-08-06T07:14:13.871Z,18.40
2022-08-06T07:17:46.350Z,19.35
2022-08-06T07:21:12.910Z,18.60
2022-08-06T07:24:45.916Z,16.00
2022-08-06T07:28:13.941Z,13.82
2022-08-06T07:31:45.899Z,17.48
2022-08-06T07:35:12.478Z,24.30
2022-08-06T07:38:38.454Z,23.27
2022-08-06T07:42:10.873Z,18.00
2022-08-06T07:45:51.064Z,16.52
2022-08-06T07:49:20.920Z,16.85
2022-08-06T07:52:44.934Z,15.23
2022-08-06T07:56:11.637Z,14.38
2022-08-06T07:59:35.861Z,13.77
2022-08-06T08:03:43.594Z,14.55
2022-08-06T08:06:55.465Z,16.77
2022-08-06T08:10:15.911Z,14.20
2022-08-06T08:13:44.495Z,13.00
2022-08-06T08:17:08.905Z,10.90
2022-08-06T08:20:36.458Z,14.82
2022-08-06T08:24:01.980Z,13.43
2022-08-06T08:27:27.085Z,14.57
2022-08-06T08:30:54.982Z,13.75
2022-08-06T08:34:20.941Z,14.43
2022-08-06T08:37:51.959Z,13.05
2022-08-06T08:41:49.607Z,15.57
2022-08-06T08:45:15.797Z,11.70
2022-08-06T08:48:41.961Z,10.73
2022-08-06T08:52:11.400Z,11.40
2022-08-06T08:57:10.617Z,9.80
2022-08-06T08:59:59.865Z,10.13
2022-08-06T09:03:12.730Z,10.70
2022-08-06T09:06:39.859Z,11.43
2022-08-06T09:10:04.964Z,10.77
2022-08-06T09:13:31.976Z,13.00
2022-08-06T09:17:18.116Z,13.25
2022-08-06T09:20:59.952Z,11.75
2022-08-06T09:24:24.787Z,11.60
2022-08-06T09:27:59.312Z,12.55
2022-08-06T09:31:34.408Z,11.45
2022-08-06T09:35:17.062Z,11.15
2022-08-06T09:38:48.015Z,13.35
2022-08-06T09:42:12.935Z,11.18
2022-08-06T09:45:42.250Z,10.43
2022-08-06T09:49:48.916Z,11.85
2022-08-06T09:53:20.857Z,7.78
2022-08-06T09:56:45.963Z,10.98
2022-08-06T10:00:15.336Z,11.55
2022-08-06T10:04:02.510Z,9.63
2022-08-06T10:07:25.191Z,8.70
2022-08-06T10:11:05.352Z,10.02
2022-08-06T10:14:42.004Z,9.25
2022-08-06T10:18:05.983Z,11.45
2022-08-06T10:21:48.926Z,26.88
2022-08-06T10:25:24.787Z,19.92
2022-08-06T10:28:55.916Z,14.52
2022-08-06T10:32:21.015Z,12.00
2022-08-06T10:35:54.928Z,10.60
2022-08-06T10:40:09.319Z,13.43
2022-08-06T10:43:06.953Z,11.10
2022-08-06T10:46:31.985Z,15.23
2022-08-06T10:50:30.362Z,13.38
2022-08-06T10:54:00.557Z,12.20
2022-08-06T10:57:34.063Z,7.63
2022-08-06T11:01:00.973Z,9.60
2022-08-06T11:04:32.942Z,10.85
2022-08-06T11:08:56.308Z,7.55
2022-08-06T11:12:36.593Z,11.10
2022-08-06T11:15:53.999Z,11.68
2022-08-06T11:19:28.258Z,8.00
2022-08-06T11:22:59.543Z,10.40
2022-08-06T11:26:25.957Z,9.32
2022-08-06T11:30:26.241Z,7.47
2022-08-06T11:33:52.940Z,6.75
2022-08-06T11:38:00.117Z,7.18
2022-08-06T11:41:50.904Z,11.40
2022-08-06T11:46:20.450Z,7.65
2022-08-06T11:49:18.242Z,8.10
2022-08-06T11:52:48.946Z,5.53
2022-08-06T11:56:25.529Z,6.80
2022-08-06T12:00:23.021Z,6.10
2022-08-06T12:03:55.006Z,6.10
2022-08-06T12:07:38.189Z,7.55
2022-08-06T12:11:39.049Z,6.75
2022-08-06T12:14:56.631Z,7.20
2022-08-06T12:18:19.322Z,8.30
2022-08-06T12:21:49.203Z,7.85
2022-08-06T12:25:15.124Z,6.03
2022-08-06T12:28:39.985Z,7.88
2022-08-06T12:32:04.046Z,6.13
2022-08-06T12:35:31.021Z,7.05
2022-08-06T12:38:58.541Z,6.95
2022-08-06T12:42:53.993Z,5.22
2022-08-06T12:46:24.009Z,7.00
2022-08-06T12:49:53.019Z,7.80
2022-08-06T12:53:20.755Z,6.93
2022-08-06T12:56:47.984Z,5.72
2022-08-06T13:00:14.858Z,4.97
2022-08-06T13:03:39.994Z,7.47
2022-08-06T13:07:05.035Z,6.60
2022-08-06T13:10:36.262Z,6.53
2022-08-06T13:14:17.778Z,6.80
2022-08-06T13:17:59.817Z,5.23
2022-08-06T13:21:58.111Z,7.50
2022-08-06T13:25:48.199Z,6.50
2022-08-06T13:30:32.823Z,7.97
2022-08-06T13:33:38.597Z,6.15
2022-08-06T13:37:15.865Z,7.20
2022-08-06T13:41:03.719Z,5.28
2022-08-06T13:45:03.039Z,7.10
2022-08-06T13:48:47.253Z,7.25
2022-08-06T13:52:13.109Z,4.97
2022-08-06T13:56:01.964Z,6.32
2022-08-06T13:59:40.035Z,8.32
2022-08-06T14:03:13.906Z,7.80
2022-08-06T14:06:41.263Z,8.60
2022-08-06T14:10:08.770Z,7.13
2022-08-06T14:13:34.061Z,7.57
2022-08-06T14:17:00.069Z,7.60
2022-08-06T14:20:25.893Z,7.50
2022-08-06T14:24:00.288Z,6.47
2022-08-06T14:27:26.229Z,8.57
2022-08-06T14:30:55.925Z,7.30
2022-08-06T14:34:20.098Z,9.68
2022-08-06T14:38:02.038Z,6.72
2022-08-06T14:41:52.225Z,7.97
2022-08-06T14:45:21.689Z,6.00
2022-08-06T14:48:48.749Z,7.22
2022-08-06T14:52:19.174Z,5.25
2022-08-06T14:56:07.591Z,8.50
2022-08-06T14:59:48.285Z,7.22
2022-08-06T15:03:13.579Z,6.97
2022-08-06T15:06:53.254Z,5.78
2022-08-06T15:10:27.536Z,4.70
2022-08-06T15:13:53.854Z,5.32
2022-08-06T15:17:49.111Z,6.30
2022-08-06T15:21:03.225Z,6.03
2022-08-06T15:24:28.094Z,6.05
2022-08-06T15:27:53.122Z,7.55
2022-08-06T15:31:17.035Z,6.35
2022-08-06T15:34:44.617Z,8.07
2022-08-06T15:38:16.146Z,6.95
2022-08-06T15:41:43.201Z,6.18
2022-08-06T15:45:49.513Z,6.57
2022-08-06T15:48:55.934Z,7.80
2022-08-06T15:52:20.040Z,8.18
2022-08-06T15:55:45.106Z,7.72
2022-08-06T15:59:12.456Z,7.15
2022-08-06T16:02:42.464Z,7.63
2022-08-06T16:06:23.638Z,6.78
2022-08-06T16:10:03.170Z,7.78
2022-08-06T16:13:36.045Z,9.18
2022-08-06T16:17:01.131Z,7.70
2022-08-06T16:20:31.971Z,6.10
2022-08-06T16:24:03.581Z,11.70
2022-08-06T16:27:37.649Z,9.70
2022-08-06T16:31:11.190Z,9.95
2022-08-06T16:34:39.079Z,4.93
2022-08-06T16:38:12.324Z,7.00
2022-08-06T16:41:58.592Z,8.98
2022-08-06T16:45:24.149Z,7.97
2022-08-06T16:49:01.125Z,8.48
2022-08-06T16:52:42.682Z,8.73
2022-08-06T16:56:09.071Z,7.80
2022-08-06T16:59:42.838Z,7.57
2022-08-06T17:03:07.991Z,12.70
2022-08-06T17:06:34.279Z,8.45
2022-08-06T17:10:00.515Z,10.60
2022-08-06T17:13:39.452Z,8.82
2022-08-06T17:17:10.392Z,12.10
2022-08-06T17:20:37.162Z,9.07
2022-08-06T17:24:05.115Z,8.27
2022-08-06T17:27:44.798Z,10.25
2022-08-06T17:34:53.120Z,10.27
2022-08-06T17:38:17.157Z,9.35
2022-08-06T17:41:46.790Z,10.27
2022-08-06T17:45:13.158Z,9.30
2022-08-06T17:48:39.112Z,10.43
2022-08-06T17:52:03.194Z,14.27
2022-08-06T17:55:37.102Z,10.98
2022-08-06T17:59:16.431Z,10.73
2022-08-06T18:02:42.132Z,8.90
2022-08-06T18:06:16.706Z,8.65
2022-08-06T18:10:11.388Z,5.72
2022-08-06T18:13:53.142Z,5.35
2022-08-06T18:17:17.230Z,4.22
2022-08-06T18:20:43.119Z,12.18
2022-08-06T18:24:03.181Z,3.55
2022-08-06T18:28:03.767Z,2.83
2022-08-06T18:31:14.182Z,2.95
2022-08-06T18:34:52.594Z,3.13
2022-08-06T18:38:16.187Z,3.58
2022-08-06T18:41:40.169Z,2.97
2022-08-06T18:45:04.173Z,2.25
2022-08-06T18:48:29.260Z,2.92
2022-08-06T18:51:53.185Z,1.83
2022-08-06T18:55:39.464Z,3.50
2022-08-06T18:59:22.708Z,2.97
2022-08-06T19:02:49.010Z,5.43
2022-08-06T19:06:14.254Z,4.68
2022-08-06T19:09:41.159Z,4.60
2022-08-06T19:13:08.671Z,6.85
2022-08-06T19:16:38.161Z,4.57
2022-08-06T19:20:19.662Z,4.35
2022-08-06T19:24:02.416Z,6.25
2022-08-06T19:28:29.836Z,6.90
2022-08-06T19:31:23.259Z,5.90
2022-08-06T19:34:50.132Z,7.40
2022-08-06T19:38:16.218Z,6.68
2022-08-06T19:42:00.461Z,6.25
2022-08-06T19:46:30.044Z,5.95
2022-08-06T19:49:09.127Z,5.63
2022-08-06T19:52:38.242Z,7.63
2022-08-06T19:56:06.508Z,5.68
2022-08-06T20:00:51.662Z,6.45
2022-08-06T20:03:16.243Z,8.23
2022-08-06T20:07:01.596Z,5.85
2022-08-06T20:10:36.115Z,5.78
2022-08-06T20:14:01.161Z,8.32
2022-08-06T20:17:29.574Z,6.45
2022-08-06T20:21:00.078Z,7.65
2022-08-06T20:24:25.203Z,4.90
2022-08-06T20:29:09.719Z,5.90
2022-08-06T20:31:36.209Z,7.68
2022-08-06T20:35:03.266Z,7.05
2022-08-06T20:38:33.408Z,5.30
2022-08-06T20:42:08.266Z,6.68
2022-08-06T20:45:56.926Z,9.10
2022-08-06T20:49:29.431Z,9.70
2022-08-06T20:53:05.281Z,13.52
2022-08-06T20:56:34.161Z,9.27
2022-08-06T20:59:59.656Z,11.40
2022-08-06T21:05:11.053Z,10.70
2022-08-06T21:07:08.276Z,13.18
2022-08-06T21:10:39.211Z,9.15
2022-08-06T21:14:07.926Z,13.18
2022-08-06T21:17:35.964Z,17.58
2022-08-06T21:21:04.197Z,17.33
2022-08-06T21:24:28.208Z,18.63
2022-08-06T21:27:58.544Z,10.35
2022-08-06T21:31:24.565Z,7.60
2022-08-06T21:34:49.225Z,8.38
2022-08-06T21:38:26.015Z,8.52
2022-08-06T21:41:58.789Z,10.55
2022-08-06T21:45:50.401Z,6.25
2022-08-06T21:49:15.205Z,7.35
2022-08-06T21:52:45.177Z,9.13
2022-08-06T21:56:37.362Z,7.47
2022-08-06T21:59:54.192Z,9.77
2022-08-06T22:04:36.663Z,7.70
2022-08-06T22:07:07.252Z,7.22
2022-08-06T22:10:32.815Z,8.23
2022-08-06T22:14:01.084Z,9.00
2022-08-06T22:17:59.791Z,8.25
2022-08-06T22:21:14.366Z,12.23
2022-08-06T22:24:38.222Z,11.20
2022-08-06T22:28:03.207Z,8.48
2022-08-06T22:31:55.852Z,9.63
2022-08-06T22:35:12.256Z,10.82
2022-08-06T22:38:36.280Z,10.32
2022-08-06T22:42:06.410Z,11.68
2022-08-06T22:46:00.284Z,14.13
2022-08-06T22:49:16.206Z,9.35
2022-08-06T22:53:03.134Z,8.85
2022-08-06T22:56:28.395Z,8.23
2022-08-06T23:00:07.024Z,9.07
2022-08-06T23:03:39.058Z,8.50
2022-08-06T23:07:09.358Z,8.35
2022-08-06T23:10:35.233Z,9.85
2022-08-06T23:14:00.647Z,8.63
2022-08-06T23:17:25.480Z,8.10
2022-08-06T23:21:24.237Z,10.48
2022-08-06T23:25:03.560Z,9.50
2022-08-06T23:28:35.230Z,10.15
2022-08-06T23:32:02.310Z,8.48
2022-08-06T23:35:36.542Z,11.18
2022-08-06T23:39:02.358Z,8.88
2022-08-06T23:42:27.259Z,12.57
2022-08-06T23:45:52.247Z,13.55
2022-08-06T23:49:17.221Z,16.65
2022-08-06T23:52:41.955Z,7.93
2022-08-06T23:56:15.281Z,9.88
2022-08-06T23:59:44.870Z,7.65
